sensor_id;sensor_type;location;lat;lon;timestamp;P1;durP1;ratioP1;P2;durP2;ratioP2
64757;SDS011;51193;45.588;5.376;2022-08-19T00:01:48;6.35;;;5.03;;
64757;SDS011;51193;45.588;5.376;2022-08-19T00:04:16;5.70;;;5.10;;
64757;SDS011;51193;45.588;5.376;2022-08-19T00:06:44;6.22;;;5.03;;
64757;SDS011;51193;45.588;5.376;2022-08-19T00:09:13;5.93;;;5.32;;
64757;SDS011;51193;45.588;5.376;2022-08-19T00:11:41;9.05;;;5.10;;
64757;SDS011;51193;45.588;5.376;2022-08-19T00:14:09;5.90;;;5.18;;
64757;SDS011;51193;45.588;5.376;2022-08-19T00:16:39;9.10;;;5.10;;
64757;SDS011;51193;45.588;5.376;2022-08-19T00:19:06;6.82;;;5.65;;
64757;SDS011;51193;45.588;5.376;2022-08-19T00:21:32;8.32;;;5.88;;
64757;SDS011;51193;45.588;5.376;2022-08-19T00:24:00;5.97;;;5.38;;
64757;SDS011;51193;45.588;5.376;2022-08-19T00:26:26;6.13;;;5.53;;
64757;SDS011;51193;45.588;5.376;2022-08-19T00:28:52;6.30;;;5.30;;
64757;SDS011;51193;45.588;5.376;2022-08-19T00:31:18;8.20;;;5.88;;
64757;SDS011;51193;45.588;5.376;2022-08-19T00:33:47;7.18;;;5.60;;
64757;SDS011;51193;45.588;5.376;2022-08-19T00:36:15;6.50;;;5.05;;
64757;SDS011;51193;45.588;5.376;2022-08-19T00:38:41;6.78;;;5.53;;
64757;SDS011;51193;45.588;5.376;2022-08-19T00:41:08;7.20;;;5.63;;
64757;SDS011;51193;45.588;5.376;2022-08-19T00:43:55;6.32;;;5.15;;
64757;SDS011;51193;45.588;5.376;2022-08-19T00:46:42;5.35;;;4.85;;
64757;SDS011;51193;45.588;5.376;2022-08-19T00:49:12;6.43;;;5.63;;
64757;SDS011;51193;45.588;5.376;2022-08-19T00:51:42;6.70;;;5.43;;
64757;SDS011;51193;45.588;5.376;2022-08-19T00:54:10;6.97;;;5.22;;
64757;SDS011;51193;45.588;5.376;2022-08-19T00:56:36;6.13;;;5.50;;
64757;SDS011;51193;45.588;5.376;2022-08-19T00:59:02;6.40;;;5.80;;
64757;SDS011;51193;45.588;5.376;2022-08-19T01:01:34;6.15;;;5.22;;
64757;SDS011;51193;45.588;5.376;2022-08-19T01:04:03;7.55;;;5.63;;
64757;SDS011;51193;45.588;5.376;2022-08-19T01:06:31;7.30;;;5.07;;
64757;SDS011;51193;45.588;5.376;2022-08-19T01:08:58;6.90;;;6.20;;
64757;SDS011;51193;45.588;5.376;2022-08-19T01:11:25;8.55;;;6.25;;
64757;SDS011;51193;45.588;5.376;2022-08-19T01:13:53;7.00;;;6.07;;
64757;SDS011;51193;45.588;5.376;2022-08-19T01:16:21;7.05;;;5.97;;
64757;SDS011;51193;45.588;5.376;2022-08-19T01:18:48;7.20;;;6.50;;
64757;SDS011;51193;45.588;5.376;2022-08-19T01:21:20;7.75;;;6.95;;
64757;SDS011;51193;45.588;5.376;2022-08-19T01:23:47;8.02;;;7.20;;
64757;SDS011;51193;45.588;5.376;2022-08-19T01:26:14;7.90;;;6.53;;
64757;SDS011;51193;45.588;5.376;2022-08-19T01:28:42;8.15;;;6.65;;
64757;SDS011;51193;45.588;5.376;2022-08-19T01:31:14;7.72;;;6.93;;
64757;SDS011;51193;45.588;5.376;2022-08-19T01:36:10;8.23;;;7.35;;
64757;SDS011;51193;45.588;5.376;2022-08-19T01:38:39;11.00;;;7.20;;
64757;SDS011;51193;45.588;5.376;2022-08-19T01:41:07;7.72;;;6.93;;
64757;SDS011;51193;45.588;5.376;2022-08-19T01:43:34;8.70;;;7.13;;
64757;SDS011;51193;45.588;5.376;2022-08-19T01:45:59;8.50;;;7.20;;
64757;SDS011;51193;45.588;5.376;2022-08-19T01:48:25;7.20;;;6.50;;
64757;SDS011;51193;45.588;5.376;2022-08-19T01:50:54;8.50;;;7.10;;
64757;SDS011;51193;45.588;5.376;2022-08-19T01:53:19;8.68;;;6.80;;
64757;SDS011;51193;45.588;5.376;2022-08-19T01:55:45;8.27;;;6.93;;
64757;SDS011;51193;45.588;5.376;2022-08-19T01:58:12;8.40;;;6.70;;
64757;SDS011;51193;45.588;5.376;2022-08-19T02:00:42;8.30;;;7.25;;
64757;SDS011;51193;45.588;5.376;2022-08-19T02:03:08;7.95;;;6.82;;
64757;SDS011;51193;45.588;5.376;2022-08-19T02:05:34;7.70;;;6.43;;
64757;SDS011;51193;45.588;5.376;2022-08-19T02:07:59;7.38;;;6.53;;
64757;SDS011;51193;45.588;5.376;2022-08-19T02:10:25;7.43;;;6.60;;
64757;SDS011;51193;45.588;5.376;2022-08-19T02:12:50;6.97;;;6.15;;
64757;SDS011;51193;45.588;5.376;2022-08-19T02:15:16;7.30;;;6.57;;
64757;SDS011;51193;45.588;5.376;2022-08-19T02:17:44;7.07;;;6.32;;
64757;SDS011;51193;45.588;5.376;2022-08-19T02:20:11;7.05;;;6.22;;
64757;SDS011;51193;45.588;5.376;2022-08-19T02:22:38;7.93;;;6.50;;
64757;SDS011;51193;45.588;5.376;2022-08-19T02:25:06;7.53;;;6.07;;
64757;SDS011;51193;45.588;5.376;2022-08-19T02:27:32;6.78;;;6.18;;
64757;SDS011;51193;45.588;5.376;2022-08-19T02:29:59;6.82;;;6.00;;
64757;SDS011;51193;45.588;5.376;2022-08-19T02:32:24;9.02;;;5.70;;
64757;SDS011;51193;45.588;5.376;2022-08-19T02:34:50;6.50;;;5.90;;
64757;SDS011;51193;45.588;5.376;2022-08-19T02:37:15;6.95;;;6.25;;
64757;SDS011;51193;45.588;5.376;2022-08-19T02:40:00;6.32;;;5.68;;
64757;SDS011;51193;45.588;5.376;2022-08-19T02:42:26;7.65;;;6.40;;
64757;SDS011;51193;45.588;5.376;2022-08-19T02:44:51;6.70;;;5.88;;
64757;SDS011;51193;45.588;5.376;2022-08-19T02:47:17;7.22;;;5.95;;
64757;SDS011;51193;45.588;5.376;2022-08-19T02:49:44;6.57;;;5.95;;
64757;SDS011;51193;45.588;5.376;2022-08-19T02:52:10;6.32;;;5.60;;
64757;SDS011;51193;45.588;5.376;2022-08-19T02:54:36;6.05;;;5.45;;
64757;SDS011;51193;45.588;5.376;2022-08-19T02:57:03;6.85;;;5.95;;
64757;SDS011;51193;45.588;5.376;2022-08-19T02:59:30;7.18;;;6.20;;
64757;SDS011;51193;45.588;5.376;2022-08-19T03:01:56;7.22;;;5.85;;
64757;SDS011;51193;45.588;5.376;2022-08-19T03:04:22;6.70;;;5.80;;
64757;SDS011;51193;45.588;5.376;2022-08-19T03:06:48;6.88;;;5.78;;
64757;SDS011;51193;45.588;5.376;2022-08-19T03:09:14;6.72;;;6.03;;
64757;SDS011;51193;45.588;5.376;2022-08-19T03:11:40;7.07;;;5.78;;
64757;SDS011;51193;45.588;5.376;2022-08-19T03:14:06;6.50;;;5.82;;
64757;SDS011;51193;45.588;5.376;2022-08-19T03:16:35;6.45;;;5.65;;
64757;SDS011;51193;45.588;5.376;2022-08-19T03:19:11;6.57;;;5.68;;
64757;SDS011;51193;45.588;5.376;2022-08-19T03:21:36;8.15;;;6.03;;
64757;SDS011;51193;45.588;5.376;2022-08-19T03:24:03;6.45;;;5.80;;
64757;SDS011;51193;45.588;5.376;2022-08-19T03:26:31;9.18;;;5.72;;
64757;SDS011;51193;45.588;5.376;2022-08-19T03:28:57;7.22;;;5.60;;
64757;SDS011;51193;45.588;5.376;2022-08-19T03:31:26;9.13;;;6.20;;
64757;SDS011;51193;45.588;5.376;2022-08-19T03:33:52;7.15;;;6.22;;
64757;SDS011;51193;45.588;5.376;2022-08-19T03:36:18;7.53;;;5.90;;
64757;SDS011;51193;45.588;5.376;2022-08-19T03:38:49;6.97;;;6.07;;
64757;SDS011;51193;45.588;5.376;2022-08-19T03:41:21;6.53;;;5.18;;
64757;SDS011;51193;45.588;5.376;2022-08-19T03:43:49;7.53;;;5.68;;
64757;SDS011;51193;45.588;5.376;2022-08-19T03:46:16;9.27;;;6.50;;
64757;SDS011;51193;45.588;5.376;2022-08-19T03:48:45;6.85;;;5.75;;
64757;SDS011;51193;45.588;5.376;2022-08-19T03:51:16;6.95;;;6.25;;
64757;SDS011;51193;45.588;5.376;2022-08-19T03:53:44;10.73;;;6.65;;
64757;SDS011;51193;45.588;5.376;2022-08-19T03:56:09;8.77;;;6.80;;
64757;SDS011;51193;45.588;5.376;2022-08-19T03:58:35;9.23;;;6.88;;
64757;SDS011;51193;45.588;5.376;2022-08-19T04:01:02;7.85;;;6.85;;
64757;SDS011;51193;45.588;5.376;2022-08-19T04:03:36;8.93;;;6.57;;
64757;SDS011;51193;45.588;5.376;2022-08-19T04:06:18;9.07;;;6.50;;
64757;SDS011;51193;45.588;5.376;2022-08-19T04:08:46;7.00;;;6.30;;
64757;SDS011;51193;45.588;5.376;2022-08-19T04:11:14;7.53;;;6.75;;
64757;SDS011;51193;45.588;5.376;2022-08-19T04:13:42;7.75;;;6.63;;
64757;SDS011;51193;45.588;5.376;2022-08-19T04:16:10;7.47;;;6.70;;
64757;SDS011;51193;45.588;5.376;2022-08-19T04:18:37;8.45;;;7.30;;
64757;SDS011;51193;45.588;5.376;2022-08-19T04:21:04;9.35;;;6.55;;
64757;SDS011;51193;45.588;5.376;2022-08-19T04:23:31;8.57;;;6.55;;
64757;SDS011;51193;45.588;5.376;2022-08-19T04:25:57;7.93;;;6.50;;
64757;SDS011;51193;45.588;5.376;2022-08-19T04:28:23;7.05;;;6.35;;
64757;SDS011;51193;45.588;5.376;2022-08-19T04:30:50;7.88;;;6.32;;
64757;SDS011;51193;45.588;5.376;2022-08-19T04:33:18;10.05;;;6.18;;
64757;SDS011;51193;45.588;5.376;2022-08-19T04:35:47;8.85;;;6.00;;
64757;SDS011;51193;45.588;5.376;2022-08-19T04:38:14;7.80;;;6.85;;
64757;SDS011;51193;45.588;5.376;2022-08-19T04:40:42;8.20;;;6.93;;
64757;SDS011;51193;45.588;5.376;2022-08-19T04:43:28;10.05;;;7.07;;
64757;SDS011;51193;45.588;5.376;2022-08-19T04:45:54;7.78;;;6.63;;
64757;SDS011;51193;45.588;5.376;2022-08-19T04:48:20;8.88;;;6.53;;
64757;SDS011;51193;45.588;5.376;2022-08-19T04:50:54;10.15;;;6.53;;
64757;SDS011;51193;45.588;5.376;2022-08-19T04:53:29;8.15;;;6.60;;
64757;SDS011;51193;45.588;5.376;2022-08-19T04:55:56;9.23;;;6.50;;
64757;SDS011;51193;45.588;5.376;2022-08-19T04:58:24;9.35;;;6.55;;
64757;SDS011;51193;45.588;5.376;2022-08-19T05:00:51;8.27;;;6.90;;
64757;SDS011;51193;45.588;5.376;2022-08-19T05:03:17;8.50;;;6.72;;
64757;SDS011;51193;45.588;5.376;2022-08-19T05:05:44;7.40;;;6.70;;
64757;SDS011;51193;45.588;5.376;2022-08-19T05:08:11;8.45;;;6.63;;
64757;SDS011;51193;45.588;5.376;2022-08-19T05:10:37;8.38;;;6.68;;
64757;SDS011;51193;45.588;5.376;2022-08-19T05:13:04;10.35;;;7.68;;
64757;SDS011;51193;45.588;5.376;2022-08-19T05:15:30;9.05;;;7.97;;
64757;SDS011;51193;45.588;5.376;2022-08-19T05:17:56;7.60;;;6.80;;
64757;SDS011;51193;45.588;5.376;2022-08-19T05:20:40;9.55;;;7.82;;
64757;SDS011;51193;45.588;5.376;2022-08-19T05:25:52;8.98;;;7.80;;
64757;SDS011;51193;45.588;5.376;2022-08-19T05:28:18;10.85;;;7.88;;
64757;SDS011;51193;45.588;5.376;2022-08-19T05:30:45;9.40;;;8.07;;
64757;SDS011;51193;45.588;5.376;2022-08-19T05:33:11;9.07;;;7.90;;
64757;SDS011;51193;45.588;5.376;2022-08-19T05:35:38;8.43;;;7.53;;
64757;SDS011;51193;45.588;5.376;2022-08-19T05:38:04;13.75;;;9.00;;
64757;SDS011;51193;45.588;5.376;2022-08-19T05:40:34;9.48;;;7.95;;
64757;SDS011;51193;45.588;5.376;2022-08-19T05:43:01;9.82;;;8.23;;
64757;SDS011;51193;45.588;5.376;2022-08-19T05:45:28;10.25;;;8.48;;
64757;SDS011;51193;45.588;5.376;2022-08-19T05:47:53;9.95;;;7.63;;
64757;SDS011;51193;45.588;5.376;2022-08-19T05:50:19;10.93;;;8.15;;
64757;SDS011;51193;45.588;5.376;2022-08-19T05:52:45;9.93;;;7.32;;
64757;SDS011;51193;45.588;5.376;2022-08-19T05:55:10;9.80;;;8.00;;
64757;SDS011;51193;45.588;5.376;2022-08-19T05:57:36;10.30;;;8.05;;
64757;SDS011;51193;45.588;5.376;2022-08-19T06:00:03;8.85;;;7.55;;
64757;SDS011;51193;45.588;5.376;2022-08-19T06:02:33;10.38;;;8.40;;
64757;SDS011;51193;45.588;5.376;2022-08-19T06:05:00;12.77;;;7.75;;
64757;SDS011;51193;45.588;5.376;2022-08-19T06:07:27;9.57;;;7.90;;
64757;SDS011;51193;45.588;5.376;2022-08-19T06:09:53;11.93;;;8.27;;
64757;SDS011;51193;45.588;5.376;2022-08-19T06:12:19;12.02;;;8.40;;
64757;SDS011;51193;45.588;5.376;2022-08-19T06:14:51;8.60;;;7.70;;
64757;SDS011;51193;45.588;5.376;2022-08-19T06:17:19;9.30;;;7.38;;
64757;SDS011;51193;45.588;5.376;2022-08-19T06:19:44;7.63;;;6.82;;
64757;SDS011;51193;45.588;5.376;2022-08-19T06:22:10;8.70;;;6.78;;
64757;SDS011;51193;45.588;5.376;2022-08-19T06:24:37;7.80;;;7.00;;
64757;SDS011;51193;45.588;5.376;2022-08-19T06:27:02;7.97;;;6.35;;
64757;SDS011;51193;45.588;5.376;2022-08-19T06:29:30;7.70;;;7.00;;
64757;SDS011;51193;45.588;5.376;2022-08-19T06:31:57;7.20;;;6.50;;
64757;SDS011;51193;45.588;5.376;2022-08-19T06:34:24;8.35;;;6.68;;
64757;SDS011;51193;45.588;5.376;2022-08-19T06:36:52;6.25;;;5.65;;
64757;SDS011;51193;45.588;5.376;2022-08-19T06:39:23;7.03;;;6.07;;
64757;SDS011;51193;45.588;5.376;2022-08-19T06:41:52;6.75;;;6.05;;
64757;SDS011;51193;45.588;5.376;2022-08-19T06:44:21;6.93;;;5.50;;
64757;SDS011;51193;45.588;5.376;2022-08-19T06:46:48;8.52;;;6.22;;
64757;SDS011;51193;45.588;5.376;2022-08-19T06:49:14;7.18;;;6.07;;
64757;SDS011;51193;45.588;5.376;2022-08-19T06:51:41;7.00;;;6.30;;
64757;SDS011;51193;45.588;5.376;2022-08-19T06:54:07;6.93;;;6.22;;
64757;SDS011;51193;45.588;5.376;2022-08-19T06:56:33;6.70;;;6.00;;
64757;SDS011;51193;45.588;5.376;2022-08-19T06:59:05;8.02;;;5.60;;
64757;SDS011;51193;45.588;5.376;2022-08-19T07:01:36;6.63;;;6.03;;
64757;SDS011;51193;45.588;5.376;2022-08-19T07:04:04;6.50;;;5.75;;
64757;SDS011;51193;45.588;5.376;2022-08-19T07:06:33;7.60;;;5.72;;
64757;SDS011;51193;45.588;5.376;2022-08-19T07:08:59;6.97;;;5.80;;
64757;SDS011;51193;45.588;5.376;2022-08-19T07:11:25;6.50;;;5.90;;
64757;SDS011;51193;45.588;5.376;2022-08-19T07:13:50;7.20;;;6.15;;
64757;SDS011;51193;45.588;5.376;2022-08-19T07:16:17;7.00;;;5.65;;
64757;SDS011;51193;45.588;5.376;2022-08-19T07:18:44;5.82;;;5.22;;
64757;SDS011;51193;45.588;5.376;2022-08-19T07:21:13;7.25;;;6.03;;
64757;SDS011;51193;45.588;5.376;2022-08-19T07:23:43;7.88;;;6.60;;
64757;SDS011;51193;45.588;5.376;2022-08-19T07:26:12;7.88;;;7.07;;
64757;SDS011;51193;45.588;5.376;2022-08-19T07:28:44;7.65;;;6.85;;
64757;SDS011;51193;45.588;5.376;2022-08-19T07:31:18;7.97;;;6.75;;
64757;SDS011;51193;45.588;5.376;2022-08-19T07:33:46;8.95;;;7.10;;
64757;SDS011;51193;45.588;5.376;2022-08-19T07:36:13;9.05;;;6.70;;
64757;SDS011;51193;45.588;5.376;2022-08-19T07:38:42;8.00;;;7.22;;
64757;SDS011;51193;45.588;5.376;2022-08-19T07:41:13;8.52;;;7.65;;
64757;SDS011;51193;45.588;5.376;2022-08-19T07:43:40;8.98;;;8.07;;
64757;SDS011;51193;45.588;5.376;2022-08-19T07:46:09;12.25;;;8.27;;
64757;SDS011;51193;45.588;5.376;2022-08-19T07:48:36;11.20;;;8.13;;
64757;SDS011;51193;45.588;5.376;2022-08-19T07:51:04;11.18;;;9.43;;
64757;SDS011;51193;45.588;5.376;2022-08-19T07:53:32;9.85;;;8.77;;
64757;SDS011;51193;45.588;5.376;2022-08-19T07:55:58;12.75;;;9.60;;
64757;SDS011;51193;45.588;5.376;2022-08-19T07:58:27;10.90;;;9.32;;
64757;SDS011;51193;45.588;5.376;2022-08-19T08:00:53;10.30;;;9.02;;
64757;SDS011;51193;45.588;5.376;2022-08-19T08:03:20;13.23;;;9.52;;
64757;SDS011;51193;45.588;5.376;2022-08-19T08:06:06;11.23;;;9.18;;
64757;SDS011;51193;45.588;5.376;2022-08-19T08:11:34;11.07;;;9.27;;
64757;SDS011;51193;45.588;5.376;2022-08-19T08:13:59;10.52;;;8.93;;
64757;SDS011;51193;45.588;5.376;2022-08-19T08:16:26;10.40;;;9.27;;
64757;SDS011;51193;45.588;5.376;2022-08-19T08:18:54;11.65;;;9.18;;
64757;SDS011;51193;45.588;5.376;2022-08-19T08:21:20;13.35;;;10.70;;
64757;SDS011;51193;45.588;5.376;2022-08-19T08:23:46;15.10;;;10.45;;
64757;SDS011;51193;45.588;5.376;2022-08-19T08:26:11;13.57;;;10.35;;
64757;SDS011;51193;45.588;5.376;2022-08-19T08:28:38;11.77;;;9.88;;
64757;SDS011;51193;45.588;5.376;2022-08-19T08:31:03;12.93;;;10.20;;
64757;SDS011;51193;45.588;5.376;2022-08-19T08:33:29;12.90;;;10.30;;
64757;SDS011;51193;45.588;5.376;2022-08-19T08:35:55;14.45;;;11.20;;
64757;SDS011;51193;45.588;5.376;2022-08-19T08:38:21;12.40;;;10.00;;
64757;SDS011;51193;45.588;5.376;2022-08-19T08:40:47;14.18;;;10.90;;
64757;SDS011;51193;45.588;5.376;2022-08-19T08:48:33;13.07;;;11.20;;
64757;SDS011;51193;45.588;5.376;2022-08-19T08:51:12;12.43;;;10.88;;
64757;SDS011;51193;45.588;5.376;2022-08-19T08:53:42;14.02;;;10.95;;
64757;SDS011;51193;45.588;5.376;2022-08-19T08:56:11;13.18;;;11.77;;
64757;SDS011;51193;45.588;5.376;2022-08-19T09:01:35;18.70;;;12.88;;
64757;SDS011;51193;45.588;5.376;2022-08-19T09:04:02;15.88;;;12.13;;
64757;SDS011;51193;45.588;5.376;2022-08-19T09:06:38;15.02;;;12.32;;
64757;SDS011;51193;45.588;5.376;2022-08-19T09:09:18;16.95;;;12.45;;
64757;SDS011;51193;45.588;5.376;2022-08-19T09:14:48;16.33;;;12.75;;
64757;SDS011;51193;45.588;5.376;2022-08-19T09:17:20;17.83;;;12.68;;
64757;SDS011;51193;45.588;5.376;2022-08-19T09:19:53;15.82;;;12.95;;
64757;SDS011;51193;45.588;5.376;2022-08-19T09:22:21;15.00;;;13.32;;
64757;SDS011;51193;45.588;5.376;2022-08-19T09:24:48;16.92;;;13.23;;
64757;SDS011;51193;45.588;5.376;2022-08-19T09:27:15;17.20;;;12.98;;
64757;SDS011;51193;45.588;5.376;2022-08-19T09:29:41;16.98;;;13.82;;
64757;SDS011;51193;45.588;5.376;2022-08-19T09:32:07;17.65;;;14.20;;
64757;SDS011;51193;45.588;5.376;2022-08-19T09:34:32;16.27;;;13.75;;
64757;SDS011;51193;45.588;5.376;2022-08-19T09:36:58;17.85;;;13.38;;
64757;SDS011;51193;45.588;5.376;2022-08-19T09:39:25;15.85;;;13.55;;
64757;SDS011;51193;45.588;5.376;2022-08-19T09:41:51;19.77;;;14.35;;
64757;SDS011;51193;45.588;5.376;2022-08-19T09:44:17;17.75;;;13.55;;
64757;SDS011;51193;45.588;5.376;2022-08-19T09:46:45;17.13;;;13.05;;
64757;SDS011;51193;45.588;5.376;2022-08-19T09:49:14;17.15;;;13.68;;
64757;SDS011;51193;45.588;5.376;2022-08-19T09:51:42;16.30;;;12.93;;
64757;SDS011;51193;45.588;5.376;2022-08-19T09:54:07;16.23;;;14.02;;
64757;SDS011;51193;45.588;5.376;2022-08-19T09:56:33;19.20;;;13.88;;
64757;SDS011;51193;45.588;5.376;2022-08-19T09:58:59;17.92;;;13.80;;
64757;SDS011;51193;45.588;5.376;2022-08-19T10:01:26;17.67;;;13.93;;
64757;SDS011;51193;45.588;5.376;2022-08-19T10:03:54;15.52;;;13.45;;
64757;SDS011;51193;45.588;5.376;2022-08-19T10:06:22;19.90;;;14.20;;
64757;SDS011;51193;45.588;5.376;2022-08-19T10:08:49;15.35;;;12.98;;
64757;SDS011;51193;45.588;5.376;2022-08-19T10:11:16;20.83;;;13.48;;
64757;SDS011;51193;45.588;5.376;2022-08-19T10:13:43;18.98;;;13.82;;
64757;SDS011;51193;45.588;5.376;2022-08-19T10:16:14;16.60;;;13.73;;
64757;SDS011;51193;45.588;5.376;2022-08-19T10:18:42;17.00;;;13.07;;
64757;SDS011;51193;45.588;5.376;2022-08-19T10:21:13;17.35;;;13.27;;
64757;SDS011;51193;45.588;5.376;2022-08-19T10:23:49;18.92;;;13.13;;
64757;SDS011;51193;45.588;5.376;2022-08-19T10:26:17;20.05;;;12.55;;
64757;SDS011;51193;45.588;5.376;2022-08-19T10:28:48;16.17;;;12.75;;
64757;SDS011;51193;45.588;5.376;2022-08-19T10:31:16;16.83;;;12.80;;
64757;SDS011;51193;45.588;5.376;2022-08-19T10:33:45;13.45;;;12.05;;
64757;SDS011;51193;45.588;5.376;2022-08-19T10:36:17;17.42;;;12.13;;
64757;SDS011;51193;45.588;5.376;2022-08-19T10:38:45;16.10;;;12.73;;
64757;SDS011;51193;45.588;5.376;2022-08-19T10:41:17;15.65;;;12.50;;
64757;SDS011;51193;45.588;5.376;2022-08-19T10:43:44;15.63;;;13.77;;
64757;SDS011;51193;45.588;5.376;2022-08-19T10:46:14;15.60;;;13.50;;
64757;SDS011;51193;45.588;5.376;2022-08-19T10:48:40;17.30;;;13.52;;
64757;SDS011;51193;45.588;5.376;2022-08-19T10:51:07;21.38;;;14.25;;
64757;SDS011;51193;45.588;5.376;2022-08-19T10:53:52;17.02;;;14.15;;
64757;SDS011;51193;45.588;5.376;2022-08-19T10:56:18;17.00;;;13.55;;
64757;SDS011;51193;45.588;5.376;2022-08-19T10:59:02;19.00;;;13.75;;
64757;SDS011;51193;45.588;5.376;2022-08-19T11:01:28;19.77;;;14.75;;
64757;SDS011;51193;45.588;5.376;2022-08-19T11:03:56;21.02;;;16.08;;
64757;SDS011;51193;45.588;5.376;2022-08-19T11:06:24;23.73;;;16.38;;
64757;SDS011;51193;45.588;5.376;2022-08-19T11:08:50;21.02;;;16.48;;
64757;SDS011;51193;45.588;5.376;2022-08-19T11:11:19;20.42;;;16.63;;
64757;SDS011;51193;45.588;5.376;2022-08-19T11:13:46;22.10;;;16.50;;
64757;SDS011;51193;45.588;5.376;2022-08-19T11:16:13;20.30;;;16.73;;
64757;SDS011;51193;45.588;5.376;2022-08-19T11:18:43;22.98;;;17.20;;
64757;SDS011;51193;45.588;5.376;2022-08-19T11:21:12;22.00;;;17.38;;
64757;SDS011;51193;45.588;5.376;2022-08-19T11:23:46;19.42;;;16.90;;
64757;SDS011;51193;45.588;5.376;2022-08-19T11:26:14;19.73;;;16.27;;
64757;SDS011;51193;45.588;5.376;2022-08-19T11:28:41;22.48;;;16.48;;
64757;SDS011;51193;45.588;5.376;2022-08-19T11:31:15;20.63;;;15.82;;
64757;SDS011;51193;45.588;5.376;2022-08-19T11:33:43;20.10;;;15.35;;
64757;SDS011;51193;45.588;5.376;2022-08-19T11:36:10;16.88;;;14.60;;
64757;SDS011;51193;45.588;5.376;2022-08-19T11:38:36;19.15;;;15.80;;
64757;SDS011;51193;45.588;5.376;2022-08-19T11:41:04;18.50;;;14.27;;
64757;SDS011;51193;45.588;5.376;2022-08-19T11:43:31;15.85;;;14.13;;
64757;SDS011;51193;45.588;5.376;2022-08-19T11:45:57;16.90;;;14.35;;
64757;SDS011;51193;45.588;5.376;2022-08-19T11:48:23;19.63;;;14.88;;
64757;SDS011;51193;45.588;5.376;2022-08-19T11:50:49;20.63;;;16.05;;
64757;SDS011;51193;45.588;5.376;2022-08-19T11:53:19;18.73;;;15.40;;
64757;SDS011;51193;45.588;5.376;2022-08-19T11:55:45;20.55;;;15.98;;
64757;SDS011;51193;45.588;5.376;2022-08-19T11:58:12;18.40;;;16.05;;
64757;SDS011;51193;45.588;5.376;2022-08-19T12:00:40;22.13;;;15.10;;
64757;SDS011;51193;45.588;5.376;2022-08-19T12:03:06;17.50;;;14.32;;
64757;SDS011;51193;45.588;5.376;2022-08-19T12:05:31;19.95;;;14.07;;
64757;SDS011;51193;45.588;5.376;2022-08-19T12:07:57;18.23;;;14.55;;
64757;SDS011;51193;45.588;5.376;2022-08-19T12:10:23;18.30;;;14.70;;
64757;SDS011;51193;45.588;5.376;2022-08-19T12:12:48;17.83;;;15.10;;
64757;SDS011;51193;45.588;5.376;2022-08-19T12:15:14;17.95;;;14.65;;
64757;SDS011;51193;45.588;5.376;2022-08-19T12:17:42;19.08;;;15.25;;
64757;SDS011;51193;45.588;5.376;2022-08-19T12:20:09;17.92;;;14.90;;
64757;SDS011;51193;45.588;5.376;2022-08-19T12:22:36;18.10;;;13.85;;
64757;SDS011;51193;45.588;5.376;2022-08-19T12:25:03;18.48;;;14.00;;
64757;SDS011;51193;45.588;5.376;2022-08-19T12:27:29;19.20;;;15.65;;
64757;SDS011;51193;45.588;5.376;2022-08-19T12:29:55;19.48;;;15.25;;
64757;SDS011;51193;45.588;5.376;2022-08-19T12:32:20;18.40;;;15.13;;
64757;SDS011;51193;45.588;5.376;2022-08-19T12:34:46;18.95;;;15.15;;
64757;SDS011;51193;45.588;5.376;2022-08-19T12:37:12;17.88;;;14.90;;
64757;SDS011;51193;45.588;5.376;2022-08-19T12:39:39;20.58;;;14.77;;
64757;SDS011;51193;45.588;5.376;2022-08-19T12:42:07;19.38;;;14.88;;
64757;SDS011;51193;45.588;5.376;2022-08-19T12:44:34;18.98;;;14.32;;
64757;SDS011;51193;45.588;5.376;2022-08-19T12:47:00;17.95;;;14.73;;
64757;SDS011;51193;45.588;5.376;2022-08-19T12:49:28;18.60;;;15.48;;
64757;SDS011;51193;45.588;5.376;2022-08-19T12:51:57;20.88;;;15.25;;
64757;SDS011;51193;45.588;5.376;2022-08-19T12:54:23;19.00;;;15.60;;
64757;SDS011;51193;45.588;5.376;2022-08-19T12:56:48;20.15;;;15.18;;
64757;SDS011;51193;45.588;5.376;2022-08-19T12:59:14;17.88;;;15.13;;
64757;SDS011;51193;45.588;5.376;2022-08-19T13:01:42;19.40;;;15.40;;
64757;SDS011;51193;45.588;5.376;2022-08-19T13:04:09;17.95;;;15.30;;
64757;SDS011;51193;45.588;5.376;2022-08-19T13:06:35;19.10;;;14.68;;
64757;SDS011;51193;45.588;5.376;2022-08-19T13:09:01;21.38;;;15.85;;
64757;SDS011;51193;45.588;5.376;2022-08-19T13:11:27;17.02;;;14.30;;
64757;SDS011;51193;45.588;5.376;2022-08-19T13:13:57;18.67;;;14.98;;
64757;SDS011;51193;45.588;5.376;2022-08-19T13:16:23;20.25;;;15.85;;
64757;SDS011;51193;45.588;5.376;2022-08-19T13:18:49;17.10;;;14.75;;
64757;SDS011;51193;45.588;5.376;2022-08-19T13:21:18;21.45;;;14.82;;
64757;SDS011;51193;45.588;5.376;2022-08-19T13:23:45;17.52;;;14.38;;
64757;SDS011;51193;45.588;5.376;2022-08-19T13:26:11;19.80;;;13.70;;
64757;SDS011;51193;45.588;5.376;2022-08-19T13:28:38;16.98;;;13.60;;
64757;SDS011;51193;45.588;5.376;2022-08-19T13:31:24;18.80;;;13.80;;
64757;SDS011;51193;45.588;5.376;2022-08-19T13:34:10;15.30;;;12.80;;
64757;SDS011;51193;45.588;5.376;2022-08-19T13:36:36;15.13;;;12.57;;
64757;SDS011;51193;45.588;5.376;2022-08-19T13:39:02;17.17;;;12.77;;
64757;SDS011;51193;45.588;5.376;2022-08-19T13:41:29;17.27;;;12.48;;
64757;SDS011;51193;45.588;5.376;2022-08-19T13:43:55;16.80;;;12.75;;
64757;SDS011;51193;45.588;5.376;2022-08-19T13:46:21;16.50;;;12.70;;
64757;SDS011;51193;45.588;5.376;2022-08-19T13:48:47;19.60;;;13.13;;
64757;SDS011;51193;45.588;5.376;2022-08-19T13:51:16;17.92;;;13.07;;
64757;SDS011;51193;45.588;5.376;2022-08-19T13:53:42;16.45;;;13.00;;
64757;SDS011;51193;45.588;5.376;2022-08-19T13:56:09;15.20;;;12.98;;
64757;SDS011;51193;45.588;5.376;2022-08-19T13:58:37;19.33;;;13.18;;
64757;SDS011;51193;45.588;5.376;2022-08-19T14:01:03;17.40;;;13.00;;
64757;SDS011;51193;45.588;5.376;2022-08-19T14:03:30;15.20;;;12.07;;
64757;SDS011;51193;45.588;5.376;2022-08-19T14:05:56;15.07;;;12.35;;
64757;SDS011;51193;45.588;5.376;2022-08-19T14:08:22;16.60;;;12.77;;
64757;SDS011;51193;45.588;5.376;2022-08-19T14:10:48;13.95;;;11.68;;
64757;SDS011;51193;45.588;5.376;2022-08-19T14:13:15;15.65;;;12.48;;
64757;SDS011;51193;45.588;5.376;2022-08-19T14:15:43;15.70;;;12.43;;
64757;SDS011;51193;45.588;5.376;2022-08-19T14:18:09;14.75;;;12.15;;
64757;SDS011;51193;45.588;5.376;2022-08-19T14:20:35;14.95;;;13.15;;
64757;SDS011;51193;45.588;5.376;2022-08-19T14:23:01;16.05;;;12.15;;
64757;SDS011;51193;45.588;5.376;2022-08-19T14:25:27;14.93;;;11.70;;
64757;SDS011;51193;45.588;5.376;2022-08-19T14:27:56;12.05;;;10.07;;
64757;SDS011;51193;45.588;5.376;2022-08-19T14:30:25;11.98;;;9.77;;
64757;SDS011;51193;45.588;5.376;2022-08-19T14:32:53;17.60;;;10.48;;
64757;SDS011;51193;45.588;5.376;2022-08-19T14:35:20;15.80;;;10.75;;
64757;SDS011;51193;45.588;5.376;2022-08-19T14:37:47;11.40;;;9.98;;
64757;SDS011;51193;45.588;5.376;2022-08-19T14:40:17;11.70;;;9.77;;
64757;SDS011;51193;45.588;5.376;2022-08-19T14:42:46;13.10;;;9.20;;
64757;SDS011;51193;45.588;5.376;2022-08-19T14:45:13;10.30;;;8.95;;
64757;SDS011;51193;45.588;5.376;2022-08-19T14:47:39;10.40;;;8.93;;
64757;SDS011;51193;45.588;5.376;2022-08-19T14:50:09;14.57;;;10.25;;
64757;SDS011;51193;45.588;5.376;2022-08-19T14:52:35;12.57;;;9.80;;
64757;SDS011;51193;45.588;5.376;2022-08-19T14:55:02;16.02;;;9.98;;
64757;SDS011;51193;45.588;5.376;2022-08-19T14:57:28;12.82;;;9.13;;
64757;SDS011;51193;45.588;5.376;2022-08-19T14:59:54;14.57;;;9.23;;